sensor_id;sensor_type;location;lat;lon;timestamp;temperature;humidity
38428;DHT22;24211;49.980;19.776;2023-08-06T00:00:44;21.30;99.90
38428;DHT22;24211;49.980;19.776;2023-08-06T00:03:31;21.30;99.90
38428;DHT22;24211;49.980;19.776;2023-08-06T00:05:59;21.30;99.90
38428;DHT22;24211;49.980;19.776;2023-08-06T00:08:26;21.30;99.90
38428;DHT22;24211;49.980;19.776;2023-08-06T00:10:54;21.20;99.90
38428;DHT22;24211;49.980;19.776;2023-08-06T00:13:22;21.00;99.90
38428;DHT22;24211;49.980;19.776;2023-08-06T00:15:49;21.10;99.90
38428;DHT22;24211;49.980;19.776;2023-08-06T00:18:17;21.10;99.90
38428;DHT22;24211;49.980;19.776;2023-08-06T00:20:44;21.10;99.90
38428;DHT22;24211;49.980;19.776;2023-08-06T00:23:13;21.10;99.90
38428;DHT22;24211;49.980;19.776;2023-08-06T00:25:40;21.10;99.90
38428;DHT22;24211;49.980;19.776;2023-08-06T00:28:12;20.70;99.90
38428;DHT22;24211;49.980;19.776;2023-08-06T00:30:39;20.40;99.90
38428;DHT22;24211;49.980;19.776;2023-08-06T00:33:07;20.10;99.90
38428;DHT22;24211;49.980;19.776;2023-08-06T00:35:36;20.00;99.90
38428;DHT22;24211;49.980;19.776;2023-08-06T00:38:04;19.90;99.90
38428;DHT22;24211;49.980;19.776;2023-08-06T00:40:32;19.90;99.90
38428;DHT22;24211;49.980;19.776;2023-08-06T00:43:03;20.00;99.90
38428;DHT22;24211;49.980;19.776;2023-08-06T00:45:34;20.00;99.90
38428;DHT22;24211;49.980;19.776;2023-08-06T00:48:05;20.10;99.90
38428;DHT22;24211;49.980;19.776;2023-08-06T00:50:34;20.10;99.90
38428;DHT22;24211;49.980;19.776;2023-08-06T00:53:02;20.20;99.90
38428;DHT22;24211;49.980;19.776;2023-08-06T00:55:29;20.50;99.90
38428;DHT22;24211;49.980;19.776;2023-08-06T00:57:57;20.70;99.90
38428;DHT22;24211;49.980;19.776;2023-08-06T01:00:26;20.80;99.90
38428;DHT22;24211;49.980;19.776;2023-08-06T01:02:53;20.90;99.90
38428;DHT22;24211;49.980;19.776;2023-08-06T01:05:22;20.90;99.90
38428;DHT22;24211;49.980;19.776;2023-08-06T01:16:03;21.20;99.90
38428;DHT22;24211;49.980;19.776;2023-08-06T01:18:32;21.20;99.90
38428;DHT22;24211;49.980;19.776;2023-08-06T01:21:01;21.10;99.90
38428;DHT22;24211;49.980;19.776;2023-08-06T01:23:30;21.00;99.90
38428;DHT22;24211;49.980;19.776;2023-08-06T01:26:21;20.90;99.90
38428;DHT22;24211;49.980;19.776;2023-08-06T01:29:02;20.90;99.90
38428;DHT22;24211;49.980;19.776;2023-08-06T01:31:43;20.80;99.90
38428;DHT22;24211;49.980;19.776;2023-08-06T01:34:22;20.60;99.90
38428;DHT22;24211;49.980;19.776;2023-08-06T01:36:52;20.70;99.90
38428;DHT22;24211;49.980;19.776;2023-08-06T01:39:20;20.70;99.90
38428;DHT22;24211;49.980;19.776;2023-08-06T01:41:48;20.80;99.90
38428;DHT22;24211;49.980;19.776;2023-08-06T01:44:17;20.90;99.90
38428;DHT22;24211;49.980;19.776;2023-08-06T01:46:45;21.00;99.90
38428;DHT22;24211;49.980;19.776;2023-08-06T01:49:12;21.10;99.90
38428;DHT22;24211;49.980;19.776;2023-08-06T01:51:39;21.10;99.90
38428;DHT22;24211;49.980;19.776;2023-08-06T01:54:07;21.10;99.90
38428;DHT22;24211;49.980;19.776;2023-08-06T01:56:34;21.20;99.90
38428;DHT22;24211;49.980;19.776;2023-08-06T01:59:02;21.20;99.90
38428;DHT22;24211;49.980;19.776;2023-08-06T02:01:31;21.20;99.90
38428;DHT22;24211;49.980;19.776;2023-08-06T02:03:59;21.20;99.90
38428;DHT22;24211;49.980;19.776;2023-08-06T02:06:32;21.20;99.90
38428;DHT22;24211;49.980;19.776;2023-08-06T02:09:00;21.30;99.90
38428;DHT22;24211;49.980;19.776;2023-08-06T02:11:27;21.20;99.90
38428;DHT22;24211;49.980;19.776;2023-08-06T02:13:55;21.20;99.90
38428;DHT22;24211;49.980;19.776;2023-08-06T02:16:23;21.20;99.90
38428;DHT22;24211;49.980;19.776;2023-08-06T02:18:52;21.20;99.90
38428;DHT22;24211;49.980;19.776;2023-08-06T02:21:20;21.20;99.90
38428;DHT22;24211;49.980;19.776;2023-08-06T02:23:47;21.20;99.90
38428;DHT22;24211;49.980;19.776;2023-08-06T02:26:14;21.20;99.90
38428;DHT22;24211;49.980;19.776;2023-08-06T02:28:42;21.20;99.90
38428;DHT22;24211;49.980;19.776;2023-08-06T02:31:09;21.20;99.90
38428;DHT22;24211;49.980;19.776;2023-08-06T02:33:37;21.20;99.90
38428;DHT22;24211;49.980;19.776;2023-08-06T02:36:04;21.20;99.90
38428;DHT22;24211;49.980;19.776;2023-08-06T02:38:32;21.20;99.90
38428;DHT22;24211;49.980;19.776;2023-08-06T02:41:03;21.20;99.90
38428;DHT22;24211;49.980;19.776;2023-08-06T02:43:31;21.20;99.90
38428;DHT22;24211;49.980;19.776;2023-08-06T02:46:00;21.20;99.90
38428;DHT22;24211;49.980;19.776;2023-08-06T02:48:28;21.20;99.90
38428;DHT22;24211;49.980;19.776;2023-08-06T02:50:59;21.20;99.90
38428;DHT22;24211;49.980;19.776;2023-08-06T02:53:29;21.20;99.90
38428;DHT22;24211;49.980;19.776;2023-08-06T02:55:59;21.20;99.90
38428;DHT22;24211;49.980;19.776;2023-08-06T02:58:35;21.20;99.90
38428;DHT22;24211;49.980;19.776;2023-08-06T03:01:11;21.20;99.90
38428;DHT22;24211;49.980;19.776;2023-08-06T03:03:45;21.20;99.90
38428;DHT22;24211;49.980;19.776;2023-08-06T03:06:20;21.20;99.90
38428;DHT22;24211;49.980;19.776;2023-08-06T03:08:51;21.20;99.90
38428;DHT22;24211;49.980;19.776;2023-08-06T03:11:18;21.20;99.90
38428;DHT22;24211;49.980;19.776;2023-08-06T03:13:48;21.20;99.90
38428;DHT22;24211;49.980;19.776;2023-08-06T03:16:16;21.20;99.90
38428;DHT22;24211;49.980;19.776;2023-08-06T03:18:44;21.10;99.90
38428;DHT22;24211;49.980;19.776;2023-08-06T03:21:12;21.20;99.90
38428;DHT22;24211;49.980;19.776;2023-08-06T03:23:48;21.10;99.90
38428;DHT22;24211;49.980;19.776;2023-08-06T03:26:22;21.20;99.90
38428;DHT22;24211;49.980;19.776;2023-08-06T03:28:49;21.20;99.90
38428;DHT22;24211;49.980;19.776;2023-08-06T03:31:17;21.10;99.90
38428;DHT22;24211;49.980;19.776;2023-08-06T03:33:45;21.10;99.90
38428;DHT22;24211;49.980;19.776;2023-08-06T03:36:21;21.20;99.90
38428;DHT22;24211;49.980;19.776;2023-08-06T03:38:50;21.10;99.90
38428;DHT22;24211;49.980;19.776;2023-08-06T03:41:17;21.10;99.90
38428;DHT22;24211;49.980;19.776;2023-08-06T03:43:45;21.10;99.90
38428;DHT22;24211;49.980;19.776;2023-08-06T03:46:38;21.20;99.90
38428;DHT22;24211;49.980;19.776;2023-08-06T03:49:12;21.20;99.90
38428;DHT22;24211;49.980;19.776;2023-08-06T03:51:41;21.20;99.90
38428;DHT22;24211;49.980;19.776;2023-08-06T03:54:08;21.10;99.90
38428;DHT22;24211;49.980;19.776;2023-08-06T03:56:43;21.10;99.90
38428;DHT22;24211;49.980;19.776;2023-08-06T03:59:10;21.10;99.90
38428;DHT22;24211;49.980;19.776;2023-08-06T04:01:39;21.10;99.90
38428;DHT22;24211;49.980;19.776;2023-08-06T04:04:07;21.00;99.90
38428;DHT22;24211;49.980;19.776;2023-08-06T04:06:35;21.10;99.90
38428;DHT22;24211;49.980;19.776;2023-08-06T04:09:02;21.10;99.90
38428;DHT22;24211;49.980;19.776;2023-08-06T04:11:31;21.10;99.90
38428;DHT22;24211;49.980;19.776;2023-08-06T04:13:58;21.10;99.90
38428;DHT22;24211;49.980;19.776;2023-08-06T04:16:27;21.00;99.90
38428;DHT22;24211;49.980;19.776;2023-08-06T04:18:54;21.10;99.90
38428;DHT22;24211;49.980;19.776;2023-08-06T04:21:22;21.10;99.90
38428;DHT22;24211;49.980;19.776;2023-08-06T04:23:58;21.10;99.90
38428;DHT22;24211;49.980;19.776;2023-08-06T04:26:29;21.00;99.90
38428;DHT22;24211;49.980;19.776;2023-08-06T04:28:56;21.10;99.90
38428;DHT22;24211;49.980;19.776;2023-08-06T04:31:24;21.10;99.90
38428;DHT22;24211;49.980;19.776;2023-08-06T04:33:51;21.10;99.90
38428;DHT22;24211;49.980;19.776;2023-08-06T04:36:19;21.10;99.90
38428;DHT22;24211;49.980;19.776;2023-08-06T04:38:46;21.10;99.90
38428;DHT22;24211;49.980;19.776;2023-08-06T04:41:19;21.10;99.90
38428;DHT22;24211;49.980;19.776;2023-08-06T04:43:46;21.10;99.90
38428;DHT22;24211;49.980;19.776;2023-08-06T04:46:13;21.10;99.90
38428;DHT22;24211;49.980;19.776;2023-08-06T04:48:41;21.10;99.90
38428;DHT22;24211;49.980;19.776;2023-08-06T04:51:08;21.10;99.90
38428;DHT22;24211;49.980;19.776;2023-08-06T04:53:35;21.10;99.90
38428;DHT22;24211;49.980;19.776;2023-08-06T04:56:03;21.20;99.90
38428;DHT22;24211;49.980;19.776;2023-08-06T04:58:30;21.20;99.90
38428;DHT22;24211;49.980;19.776;2023-08-06T05:00:58;21.20;99.90
38428;DHT22;24211;49.980;19.776;2023-08-06T05:03:25;21.20;99.90
38428;DHT22;24211;49.980;19.776;2023-08-06T05:05:57;21.20;99.90
38428;DHT22;24211;49.980;19.776;2023-08-06T05:08:24;21.20;99.90
38428;DHT22;24211;49.980;19.776;2023-08-06T05:10:52;21.10;99.90
38428;DHT22;24211;49.980;19.776;2023-08-06T05:13:23;21.10;99.90
38428;DHT22;24211;49.980;19.776;2023-08-06T05:15:52;21.10;99.90
38428;DHT22;24211;49.980;19.776;2023-08-06T05:18:21;21.10;99.90
38428;DHT22;24211;49.980;19.776;2023-08-06T05:20:48;21.10;99.90
38428;DHT22;24211;49.980;19.776;2023-08-06T05:23:19;21.20;99.90
38428;DHT22;24211;49.980;19.776;2023-08-06T05:25:47;21.10;99.90
38428;DHT22;24211;49.980;19.776;2023-08-06T05:28:14;21.20;99.90
38428;DHT22;24211;49.980;19.776;2023-08-06T05:30:42;21.20;99.90
38428;DHT22;24211;49.980;19.776;2023-08-06T05:33:13;21.20;99.90
38428;DHT22;24211;49.980;19.776;2023-08-06T05:35:41;21.20;99.90
38428;DHT22;24211;49.980;19.776;2023-08-06T05:38:09;21.20;99.90
38428;DHT22;24211;49.980;19.776;2023-08-06T05:40:40;21.20;99.90
38428;DHT22;24211;49.980;19.776;2023-08-06T05:43:08;21.20;99.90
38428;DHT22;24211;49.980;19.776;2023-08-06T05:45:36;21.20;99.90
38428;DHT22;24211;49.980;19.776;2023-08-06T05:48:03;21.20;99.90
38428;DHT22;24211;49.980;19.776;2023-08-06T05:50:31;21.20;99.90
38428;DHT22;24211;49.980;19.776;2023-08-06T05:52:58;21.30;99.90
38428;DHT22;24211;49.980;19.776;2023-08-06T05:55:28;21.30;99.90
38428;DHT22;24211;49.980;19.776;2023-08-06T05:58:02;21.30;99.90
38428;DHT22;24211;49.980;19.776;2023-08-06T06:00:30;21.30;99.90
38428;DHT22;24211;49.980;19.776;2023-08-06T06:02:57;21.30;99.90
38428;DHT22;24211;49.980;19.776;2023-08-06T06:05:27;21.30;99.90
38428;DHT22;24211;49.980;19.776;2023-08-06T06:07:54;21.30;99.90
38428;DHT22;24211;49.980;19.776;2023-08-06T06:10:23;21.30;99.90
38428;DHT22;24211;49.980;19.776;2023-08-06T06:12:50;21.30;99.90
38428;DHT22;24211;49.980;19.776;2023-08-06T06:15:22;21.30;99.90
38428;DHT22;24211;49.980;19.776;2023-08-06T06:17:49;21.30;99.90
38428;DHT22;24211;49.980;19.776;2023-08-06T06:20:18;21.30;99.90
38428;DHT22;24211;49.980;19.776;2023-08-06T06:22:46;21.30;99.90
38428;DHT22;24211;49.980;19.776;2023-08-06T06:25:42;21.30;99.90
38428;DHT22;24211;49.980;19.776;2023-08-06T06:28:10;21.30;99.90
38428;DHT22;24211;49.980;19.776;2023-08-06T06:30:42;21.30;99.90
38428;DHT22;24211;49.980;19.776;2023-08-06T06:33:09;21.30;99.90
38428;DHT22;24211;49.980;19.776;2023-08-06T06:35:38;21.20;99.90
38428;DHT22;24211;49.980;19.776;2023-08-06T06:38:06;21.20;99.90
38428;DHT22;24211;49.980;19.776;2023-08-06T06:40:33;21.20;99.90
38428;DHT22;24211;49.980;19.776;2023-08-06T06:43:00;21.20;99.90
38428;DHT22;24211;49.980;19.776;2023-08-06T06:45:28;21.20;99.90
38428;DHT22;24211;49.980;19.776;2023-08-06T06:47:55;21.10;99.90
38428;DHT22;24211;49.980;19.776;2023-08-06T06:50:23;21.10;99.90
38428;DHT22;24211;49.980;19.776;2023-08-06T06:52:50;21.10;99.90
38428;DHT22;24211;49.980;19.776;2023-08-06T06:55:18;21.10;99.90
38428;DHT22;24211;49.980;19.776;2023-08-06T06:57:45;21.00;99.90
38428;DHT22;24211;49.980;19.776;2023-08-06T07:00:13;21.00;99.90
38428;DHT22;24211;49.980;19.776;2023-08-06T07:06:24;20.70;99.90
38428;DHT22;24211;49.980;19.776;2023-08-06T07:08:51;20.50;99.90
38428;DHT22;24211;49.980;19.776;2023-08-06T07:11:19;20.50;99.90
38428;DHT22;24211;49.980;19.776;2023-08-06T07:13:46;20.40;99.90
38428;DHT22;24211;49.980;19.776;2023-08-06T07:16:14;20.40;99.90
38428;DHT22;24211;49.980;19.776;2023-08-06T07:19:05;20.40;99.90
38428;DHT22;24211;49.980;19.776;2023-08-06T07:21:37;20.30;99.90
38428;DHT22;24211;49.980;19.776;2023-08-06T07:24:04;20.40;99.90
38428;DHT22;24211;49.980;19.776;2023-08-06T07:26:31;20.40;99.90
38428;DHT22;24211;49.980;19.776;2023-08-06T07:29:12;20.40;99.90
38428;DHT22;24211;49.980;19.776;2023-08-06T07:31:40;20.40;99.90
38428;DHT22;24211;49.980;19.776;2023-08-06T09:23:58;19.90;99.90
38428;DHT22;24211;49.980;19.776;2023-08-06T09:26:52;19.80;99.90
38428;DHT22;24211;49.980;19.776;2023-08-06T09:29:21;19.70;99.90
38428;DHT22;24211;49.980;19.776;2023-08-06T09:31:50;19.70;99.90
38428;DHT22;24211;49.980;19.776;2023-08-06T09:34:23;19.70;99.90
38428;DHT22;24211;49.980;19.776;2023-08-06T09:36:53;19.70;99.90
38428;DHT22;24211;49.980;19.776;2023-08-06T09:39:32;19.70;99.90
38428;DHT22;24211;49.980;19.776;2023-08-06T09:42:01;19.70;99.90
38428;DHT22;24211;49.980;19.776;2023-08-06T09:44:31;19.70;99.90
38428;DHT22;24211;49.980;19.776;2023-08-06T09:47:01;19.60;99.90
38428;DHT22;24211;49.980;19.776;2023-08-06T09:52:11;19.60;99.90
38428;DHT22;24211;49.980;19.776;2023-08-06T09:54:43;19.50;99.90
38428;DHT22;24211;49.980;19.776;2023-08-06T09:57:12;19.50;99.90
38428;DHT22;24211;49.980;19.776;2023-08-06T09:59:42;19.60;99.90
38428;DHT22;24211;49.980;19.776;2023-08-06T10:02:13;19.60;99.90
38428;DHT22;24211;49.980;19.776;2023-08-06T10:04:44;19.70;99.90
38428;DHT22;24211;49.980;19.776;2023-08-06T10:07:22;19.70;99.90
38428;DHT22;24211;49.980;19.776;2023-08-06T10:10:06;19.70;99.90
38428;DHT22;24211;49.980;19.776;2023-08-06T10:13:14;19.70;99.90
38428;DHT22;24211;49.980;19.776;2023-08-06T10:16:06;19.60;99.90
38428;DHT22;24211;49.980;19.776;2023-08-06T12:01:28;18.50;99.90
38428;DHT22;24211;49.980;19.776;2023-08-06T12:03:59;18.50;99.90
38428;DHT22;24211;49.980;19.776;2023-08-06T12:06:29;18.50;99.90
38428;DHT22;24211;49.980;19.776;2023-08-06T12:08:56;18.60;99.90
38428;DHT22;24211;49.980;19.776;2023-08-06T12:11:23;18.60;99.90
38428;DHT22;24211;49.980;19.776;2023-08-06T12:14:18;18.60;99.90
38428;DHT22;24211;49.980;19.776;2023-08-06T12:16:47;18.60;99.90
38428;DHT22;24211;49.980;19.776;2023-08-06T12:19:15;18.50;99.90
38428;DHT22;24211;49.980;19.776;2023-08-06T12:21:42;18.60;99.90
38428;DHT22;24211;49.980;19.776;2023-08-06T12:24:10;18.60;99.90
38428;DHT22;24211;49.980;19.776;2023-08-06T12:26:37;18.60;99.90
38428;DHT22;24211;49.980;19.776;2023-08-06T12:29:05;18.60;99.90
38428;DHT22;24211;49.980;19.776;2023-08-06T12:31:35;18.70;99.90
38428;DHT22;24211;49.980;19.776;2023-08-06T12:34:04;18.60;99.90
38428;DHT22;24211;49.980;19.776;2023-08-06T12:36:31;18.60;99.90
38428;DHT22;24211;49.980;19.776;2023-08-06T12:39:04;18.60;99.90
38428;DHT22;24211;49.980;19.776;2023-08-06T12:41:31;18.60;99.90
38428;DHT22;24211;49.980;19.776;2023-08-06T12:44:25;18.60;99.90
38428;DHT22;24211;49.980;19.776;2023-08-06T12:46:58;18.60;99.90
38428;DHT22;24211;49.980;19.776;2023-08-06T12:49:34;18.50;99.90
38428;DHT22;24211;49.980;19.776;2023-08-06T12:52:03;18.50;99.90
38428;DHT22;24211;49.980;19.776;2023-08-06T12:54:44;18.50;99.90
38428;DHT22;24211;49.980;19.776;2023-08-06T12:57:16;18.50;99.90
38428;DHT22;24211;49.980;19.776;2023-08-06T13:00:09;18.50;99.90
38428;DHT22;24211;49.980;19.776;2023-08-06T13:02:37;18.60;99.90
38428;DHT22;24211;49.980;19.776;2023-08-06T13:05:31;18.60;99.90
38428;DHT22;24211;49.980;19.776;2023-08-06T13:08:06;18.70;99.90
38428;DHT22;24211;49.980;19.776;2023-08-06T13:10:33;18.70;99.90
38428;DHT22;24211;49.980;19.776;2023-08-06T13:13:26;18.70;99.90
38428;DHT22;24211;49.980;19.776;2023-08-06T13:16:19;18.70;99.90
38428;DHT22;24211;49.980;19.776;2023-08-06T13:18:46;18.70;99.90
38428;DHT22;24211;49.980;19.776;2023-08-06T13:24:07;18.60;99.90
38428;DHT22;24211;49.980;19.776;2023-08-06T13:26:35;18.60;99.90
38428;DHT22;24211;49.980;19.776;2023-08-06T13:29:03;18.50;99.90
38428;DHT22;24211;49.980;19.776;2023-08-06T13:31:31;18.50;99.90
38428;DHT22;24211;49.980;19.776;2023-08-06T13:33:58;18.50;99.90
38428;DHT22;24211;49.980;19.776;2023-08-06T13:36:27;18.40;99.90
38428;DHT22;24211;49.980;19.776;2023-08-06T13:38:55;18.40;99.90
38428;DHT22;24211;49.980;19.776;2023-08-06T13:41:51;18.40;99.90
38428;DHT22;24211;49.980;19.776;2023-08-06T13:44:18;18.40;99.90
38428;DHT22;24211;49.980;19.776;2023-08-06T13:47:01;18.40;99.90
38428;DHT22;24211;49.980;19.776;2023-08-06T13:49:55;18.50;99.90
38428;DHT22;24211;49.980;19.776;2023-08-06T13:52:26;18.50;99.90
38428;DHT22;24211;49.980;19.776;2023-08-06T13:54:58;18.40;99.90
38428;DHT22;24211;49.980;19.776;2023-08-06T13:57:32;18.40;99.90
38428;DHT22;24211;49.980;19.776;2023-08-06T14:00:26;18.40;99.90
38428;DHT22;24211;49.980;19.776;2023-08-06T14:02:57;18.40;99.90
38428;DHT22;24211;49.980;19.776;2023-08-06T14:05:25;18.30;99.90
38428;DHT22;24211;49.980;19.776;2023-08-06T14:07:52;18.20;99.90
38428;DHT22;24211;49.980;19.776;2023-08-06T14:10:21;18.20;99.90
38428;DHT22;24211;49.980;19.776;2023-08-06T14:12:56;18.20;99.90
38428;DHT22;24211;49.980;19.776;2023-08-06T14:15:47;18.30;99.90
38428;DHT22;24211;49.980;19.776;2023-08-06T14:18:15;18.30;99.90
38428;DHT22;24211;49.980;19.776;2023-08-06T14:20:43;18.30;99.90
38428;DHT22;24211;49.980;19.776;2023-08-06T14:23:30;18.40;99.90
38428;DHT22;24211;49.980;19.776;2023-08-06T14:25:57;18.40;99.90
38428;DHT22;24211;49.980;19.776;2023-08-06T14:28:28;18.40;99.90
38428;DHT22;24211;49.980;19.776;2023-08-06T14:31:45;18.50;99.90
38428;DHT22;24211;49.980;19.776;2023-08-06T14:34:13;18.50;99.90
38428;DHT22;24211;49.980;19.776;2023-08-06T14:36:48;18.60;99.90
38428;DHT22;24211;49.980;19.776;2023-08-06T14:39:44;18.60;99.90
38428;DHT22;24211;49.980;19.776;2023-08-06T14:42:15;18.80;99.90
38428;DHT22;24211;49.980;19.776;2023-08-06T14:44:43;18.80;99.90
38428;DHT22;24211;49.980;19.776;2023-08-06T14:47:11;18.80;99.90
38428;DHT22;24211;49.980;19.776;2023-08-06T14:49:40;18.70;99.90
38428;DHT22;24211;49.980;19.776;2023-08-06T14:52:25;18.70;99.90
38428;DHT22;24211;49.980;19.776;2023-08-06T14:55:02;18.80;99.90
38428;DHT22;24211;49.980;19.776;2023-08-06T14:57:43;18.90;99.90
38428;DHT22;24211;49.980;19.776;2023-08-06T15:00:11;19.00;99.90
38428;DHT22;24211;49.980;19.776;2023-08-06T15:02:47;19.10;99.90
38428;DHT22;24211;49.980;19.776;2023-08-06T15:05:15;19.20;99.90
38428;DHT22;24211;49.980;19.776;2023-08-06T15:07:42;19.20;99.90
38428;DHT22;24211;49.980;19.776;2023-08-06T15:10:10;19.30;99.90
38428;DHT22;24211;49.980;19.776;2023-08-06T15:12:41;19.40;99.90
38428;DHT22;24211;49.980;19.776;2023-08-06T15:15:36;19.40;99.90
38428;DHT22;24211;49.980;19.776;2023-08-06T15:18:03;19.40;99.90
38428;DHT22;24211;49.980;19.776;2023-08-06T15:20:30;19.50;99.90
38428;DHT22;24211;49.980;19.776;2023-08-06T15:22:57;19.50;99.90
38428;DHT22;24211;49.980;19.776;2023-08-06T15:25:29;19.40;99.90
38428;DHT22;24211;49.980;19.776;2023-08-06T15:27:56;19.40;99.90
38428;DHT22;24211;49.980;19.776;2023-08-06T21:08:12;16.40;99.90
38428;DHT22;24211;49.980;19.776;2023-08-06T21:10:40;16.50;99.90
38428;DHT22;24211;49.980;19.776;2023-08-06T21:13:07;16.40;99.90
38428;DHT22;24211;49.980;19.776;2023-08-06T21:15:34;16.40;99.90
38428;DHT22;24211;49.980;19.776;2023-08-06T21:18:03;16.40;99.90
38428;DHT22;24211;49.980;19.776;2023-08-06T21:21:10;16.30;99.90
38428;DHT22;24211;49.980;19.776;2023-08-06T21:23:38;16.40;99.90
38428;DHT22;24211;49.980;19.776;2023-08-06T21:26:06;16.30;99.90
38428;DHT22;24211;49.980;19.776;2023-08-06T21:28:35;16.30;99.90
38428;DHT22;24211;49.980;19.776;2023-08-06T21:31:07;16.30;99.90
38428;DHT22;24211;49.980;19.776;2023-08-06T21:33:37;16.30;99.90
38428;DHT22;24211;49.980;19.776;2023-08-06T21:36:08;16.20;99.90
38428;DHT22;24211;49.980;19.776;2023-08-06T21:38:40;16.20;99.90
38428;DHT22;24211;49.980;19.776;2023-08-06T21:41:10;16.30;99.90
38428;DHT22;24211;49.980;19.776;2023-08-06T21:43:42;16.30;99.90
38428;DHT22;24211;49.980;19.776;2023-08-06T21:46:14;16.30;99.90
38428;DHT22;24211;49.980;19.776;2023-08-06T21:48:44;16.20;99.90
38428;DHT22;24211;49.980;19.776;2023-08-06T21:51:16;16.20;99.90
38428;DHT22;24211;49.980;19.776;2023-08-06T21:53:45;16.20;99.90
38428;DHT22;24211;49.980;19.776;2023-08-06T21:56:14;16.10;99.90
38428;DHT22;24211;49.980;19.776;2023-08-06T21:58:47;16.10;99.90
38428;DHT22;24211;49.980;19.776;2023-08-06T22:01:16;16.20;99.90
38428;DHT22;24211;49.980;19.776;2023-08-06T22:03:46;16.20;99.90
38428;DHT22;24211;49.980;19.776;2023-08-06T22:06:15;16.20;99.90
38428;DHT22;24211;49.980;19.776;2023-08-06T22:08:43;16.20;99.90
38428;DHT22;24211;49.980;19.776;2023-08-06T22:11:10;16.20;99.90
38428;DHT22;24211;49.980;19.776;2023-08-06T22:13:37;16.10;99.90
38428;DHT22;24211;49.980;19.776;2023-08-06T22:16:06;16.10;99.90
38428;DHT22;24211;49.980;19.776;2023-08-06T22:18:34;16.10;99.90
38428;DHT22;24211;49.980;19.776;2023-08-06T22:21:02;16.10;99.90
38428;DHT22;24211;49.980;19.776;2023-08-06T22:23:30;16.10;99.90
38428;DHT22;24211;49.980;19.776;2023-08-06T22:25:57;16.10;99.90
38428;DHT22;24211;49.980;19.776;2023-08-06T22:28:25;16.10;99.90
38428;DHT22;24211;49.980;19.776;2023-08-06T22:30:52;16.10;99.90
38428;DHT22;24211;49.980;19.776;2023-08-06T22:33:20;16.10;99.90
38428;DHT22;24211;49.980;19.776;2023-08-06T22:35:52;16.10;99.90
38428;DHT22;24211;49.980;19.776;2023-08-06T22:38:19;16.10;99.90
38428;DHT22;24211;49.980;19.776;2023-08-06T22:40:47;16.10;99.90
38428;DHT22;24211;49.980;19.776;2023-08-06T22:43:14;16.10;99.90
38428;DHT22;24211;49.980;19.776;2023-08-06T22:45:41;16.10;99.90
38428;DHT22;24211;49.980;19.776;2023-08-06T22:48:08;16.00;99.90
38428;DHT22;24211;49.980;19.776;2023-08-06T22:50:36;16.10;99.90
38428;DHT22;24211;49.980;19.776;2023-08-06T22:53:04;16.10;99.90
38428;DHT22;24211;49.980;19.776;2023-08-06T22:55:31;16.10;99.90
38428;DHT22;24211;49.980;19.776;2023-08-06T22:58:01;16.10;99.90
38428;DHT22;24211;49.980;19.776;2023-08-06T23:00:29;16.10;99.90
38428;DHT22;24211;49.980;19.776;2023-08-06T23:02:57;16.10;99.90
38428;DHT22;24211;49.980;19.776;2023-08-06T23:05:36;16.10;99.90
38428;DHT22;24211;49.980;19.776;2023-08-06T23:08:04;16.10;99.90
38428;DHT22;24211;49.980;19.776;2023-08-06T23:10:32;16.10;99.90
38428;DHT22;24211;49.980;19.776;2023-08-06T23:12:59;16.00;99.90
38428;DHT22;24211;49.980;19.776;2023-08-06T23:15:29;16.00;99.90
38428;DHT22;24211;49.980;19.776;2023-08-06T23:17:56;16.00;99.90
38428;DHT22;24211;49.980;19.776;2023-08-06T23:20:24;16.00;99.90
38428;DHT22;24211;49.980;19.776;2023-08-06T23:22:51;16.00;99.90
38428;DHT22;24211;49.980;19.776;2023-08-06T23:25:18;16.00;99.90
38428;DHT22;24211;49.980;19.776;2023-08-06T23:27:46;16.00;99.90
38428;DHT22;24211;49.980;19.776;2023-08-06T23:30:13;16.00;99.90
38428;DHT22;24211;49.980;19.776;2023-08-06T23:32:40;16.00;99.90
38428;DHT22;24211;49.980;19.776;2023-08-06T23:35:11;16.00;99.90
38428;DHT22;24211;49.980;19.776;2023-08-06T23:37:42;16.00;99.90
38428;DHT22;24211;49.980;19.776;2023-08-06T23:40:39;16.00;99.90
38428;DHT22;24211;49.980;19.776;2023-08-06T23:43:06;16.00;99.90
38428;DHT22;24211;49.980;19.776;2023-08-06T23:45:59;16.00;99.90
38428;DHT22;24211;49.980;19.776;2023-08-06T23:48:27;16.00;99.90
38428;DHT22;24211;49.980;19.776;2023-08-06T23:51:05;16.00;99.90
38428;DHT22;24211;49.980;19.776;2023-08-06T23:53:33;16.00;99.90
38428;DHT22;24211;49.980;19.776;2023-08-06T23:56:03;16.00;99.90
38428;DHT22;24211;49.980;19.776;2023-08-06T23:58:31;16.00;99.90
